createdAt,value
2022-08-17T00:00:34.925Z,100665.00
2022-08-17T00:03:23.240Z,100651.00
2022-08-17T00:09:50.477Z,100642.00
2022-08-17T00:12:42.249Z,100633.00
2022-08-17T00:15:10.743Z,100635.00
2022-08-17T00:17:41.022Z,100634.00
2022-08-17T00:20:10.836Z,100615.00
2022-08-17T00:26:47.930Z,100628.00
2022-08-17T00:29:19.949Z,100627.00
2022-08-17T00:31:48.126Z,100625.00
2022-08-17T00:34:15.364Z,100631.00
2022-08-17T00:36:42.488Z,100621.00
2022-08-17T00:39:09.599Z,100626.00
2022-08-17T00:41:36.923Z,100623.00
2022-08-17T00:44:09.960Z,100610.00
2022-08-17T00:46:42.757Z,100607.00
2022-08-17T00:49:14.234Z,100616.00
2022-08-17T00:52:10.701Z,100616.00
2022-08-17T00:54:42.999Z,100617.00
2022-08-17T00:57:35.461Z,100610.00
2022-08-17T01:00:17.816Z,100615.00
2022-08-17T01:02:48.053Z,100618.00
2022-08-17T01:05:27.276Z,100612.00
2022-08-17T01:08:05.050Z,100605.00
2022-08-17T01:10:59.917Z,100603.00
2022-08-17T01:13:40.751Z,100583.00
2022-08-17T01:16:18.131Z,100595.00
2022-08-17T01:18:49.205Z,100599.00
2022-08-17T01:21:49.563Z,100594.00
2022-08-17T01:24:17.661Z,100586.00
2022-08-17T01:26:47.522Z,100583.00
2022-08-17T01:29:16.875Z,100587.00
2022-08-17T01:31:50.891Z,100581.00
2022-08-17T01:34:19.708Z,100573.00
2022-08-17T01:36:50.260Z,100570.00
2022-08-17T01:39:41.385Z,100573.00
2022-08-17T01:42:21.719Z,100567.00
2022-08-17T01:44:53.345Z,100579.00
2022-08-17T01:47:24.256Z,100559.00
2022-08-17T01:49:51.476Z,100563.00
2022-08-17T01:52:19.683Z,100562.00
2022-08-17T01:54:51.478Z,100568.00
2022-08-17T01:57:18.930Z,100563.00
2022-08-17T01:59:46.204Z,100556.00
2022-08-17T02:02:30.496Z,100565.00
2022-08-17T02:05:00.056Z,100564.00
2022-08-17T02:07:28.120Z,100562.00
2022-08-17T02:09:57.837Z,100561.00
2022-08-17T02:12:39.117Z,100559.00
2022-08-17T02:15:09.567Z,100556.00
2022-08-17T02:17:36.752Z,100560.00
2022-08-17T02:20:05.678Z,100560.00
2022-08-17T02:22:33.484Z,100559.00
2022-08-17T02:25:03.690Z,100553.00
2022-08-17T02:27:31.068Z,100557.00
2022-08-17T02:29:58.426Z,100557.00
2022-08-17T02:32:28.795Z,100564.00
2022-08-17T02:35:00.618Z,100561.00
2022-08-17T02:37:29.915Z,100563.00
2022-08-17T02:39:59.754Z,100554.00
2022-08-17T02:42:38.392Z,100561.00
2022-08-17T02:45:15.378Z,100566.00
2022-08-17T02:47:44.434Z,100549.00
2022-08-17T02:50:19.100Z,100546.00
2022-08-17T02:52:48.878Z,100547.00
2022-08-17T02:55:34.617Z,100549.00
2022-08-17T02:58:03.837Z,100538.00
2022-08-17T03:00:41.247Z,100549.00
2022-08-17T03:03:11.264Z,100545.00
2022-08-17T03:05:40.006Z,100544.00
2022-08-17T03:08:12.936Z,100536.00
2022-08-17T03:10:42.029Z,100523.00
2022-08-17T03:13:10.146Z,100529.00
2022-08-17T03:15:40.670Z,100536.00
2022-08-17T03:18:24.345Z,100537.00
2022-08-17T03:20:54.593Z,100529.00
2022-08-17T03:23:23.993Z,100525.00
2022-08-17T03:25:53.887Z,100528.00
2022-08-17T03:28:23.283Z,100528.00
2022-08-17T03:30:51.891Z,100523.00
2022-08-17T03:33:19.718Z,100531.00
2022-08-17T03:35:47.639Z,100530.00
2022-08-17T03:38:17.212Z,100533.00
2022-08-17T03:40:58.109Z,100538.00
2022-08-17T03:43:32.244Z,100541.00
2022-08-17T03:46:33.800Z,100530.00
2022-08-17T03:49:26.957Z,100539.00
2022-08-17T03:52:16.748Z,100532.00
2022-08-17T03:55:04.194Z,100539.00
2022-08-17T03:57:35.540Z,100540.00
2022-08-17T04:00:05.989Z,100530.00
2022-08-17T04:02:37.434Z,100533.00
2022-08-17T04:05:05.490Z,100534.00
2022-08-17T04:07:32.697Z,100547.00
2022-08-17T04:10:00.761Z,100540.00
2022-08-17T04:12:31.933Z,100540.00
2022-08-17T04:14:59.524Z,100542.00
2022-08-17T04:17:29.573Z,100549.00
2022-08-17T04:19:57.425Z,100549.00
2022-08-17T04:22:33.099Z,100559.00
2022-08-17T04:25:22.071Z,100561.00
2022-08-17T04:27:49.733Z,100551.00
2022-08-17T04:30:23.322Z,100566.00
2022-08-17T04:33:07.219Z,100568.00
2022-08-17T04:35:58.705Z,100565.00
2022-08-17T04:38:30.911Z,100565.00
2022-08-17T04:41:18.361Z,100564.00
2022-08-17T04:43:48.620Z,100551.00
2022-08-17T04:46:20.511Z,100557.00
2022-08-17T04:48:51.463Z,100564.00
2022-08-17T04:51:45.516Z,100563.00
2022-08-17T04:54:26.005Z,100572.00
2022-08-17T04:56:53.424Z,100573.00
2022-08-17T04:59:23.029Z,100588.00
2022-08-17T05:01:52.526Z,100613.00
2022-08-17T05:04:33.845Z,100595.00
2022-08-17T05:07:04.807Z,100601.00
2022-08-17T05:09:32.559Z,100604.00
2022-08-17T05:12:06.168Z,100596.00
2022-08-17T05:14:34.006Z,100599.00
2022-08-17T05:17:09.612Z,100609.00
2022-08-17T05:19:39.146Z,100601.00
2022-08-17T05:22:07.007Z,100602.00
2022-08-17T05:24:40.696Z,100610.00
2022-08-17T05:27:10.643Z,100611.00
2022-08-17T05:29:45.092Z,100613.00
2022-08-17T05:32:39.571Z,100623.00
2022-08-17T05:35:03.497Z,100621.00
2022-08-17T05:37:30.730Z,100626.00
2022-08-17T05:39:58.046Z,100627.00
2022-08-17T05:42:25.213Z,100620.00
2022-08-17T05:44:52.487Z,100619.00
2022-08-17T05:47:21.396Z,100619.00
2022-08-17T05:49:48.871Z,100618.00
2022-08-17T05:52:34.187Z,100630.00
2022-08-17T05:55:30.473Z,100630.00
2022-08-17T05:58:15.672Z,100623.00
2022-08-17T06:01:14.661Z,100618.00
2022-08-17T06:04:11.906Z,100608.00
2022-08-17T06:07:19.266Z,100604.00
2022-08-17T06:10:05.220Z,100598.00
2022-08-17T06:13:16.666Z,100615.00
2022-08-17T06:16:25.904Z,100605.00
2022-08-17T06:19:16.307Z,100604.00
2022-08-17T06:21:47.944Z,100606.00
2022-08-17T06:24:48.512Z,100594.00
2022-08-17T06:27:55.896Z,100606.00
2022-08-17T06:30:27.256Z,100614.00
2022-08-17T06:33:06.037Z,100624.00
2022-08-17T06:36:02.855Z,100617.00
2022-08-17T06:38:44.417Z,100628.00
2022-08-17T06:41:43.172Z,100634.00
2022-08-17T06:44:49.866Z,100644.00
2022-08-17T06:47:28.069Z,100643.00
2022-08-17T06:50:11.861Z,100643.00
2022-08-17T06:53:01.781Z,100643.00
2022-08-17T06:56:00.503Z,100648.00
2022-08-17T06:58:31.596Z,100652.00
2022-08-17T07:01:32.761Z,100648.00
2022-08-17T07:04:17.384Z,100656.00
2022-08-17T07:06:54.592Z,100662.00
2022-08-17T07:09:40.255Z,100658.00
2022-08-17T07:12:24.643Z,100657.00
2022-08-17T07:15:11.342Z,100657.00
2022-08-17T07:17:47.209Z,100655.00
2022-08-17T07:20:24.652Z,100650.00
2022-08-17T07:23:08.889Z,100655.00
2022-08-17T07:25:36.451Z,100664.00
2022-08-17T07:28:07.823Z,100678.00
2022-08-17T07:31:02.379Z,100676.00
2022-08-17T07:33:33.900Z,100664.00
2022-08-17T07:36:01.839Z,100655.00
2022-08-17T07:38:33.157Z,100654.00
2022-08-17T07:41:09.061Z,100655.00
2022-08-17T07:43:40.530Z,100654.00
2022-08-17T07:46:40.896Z,100649.00
2022-08-17T07:49:31.701Z,100655.00
2022-08-17T07:52:47.549Z,100664.00
2022-08-17T07:54:54.898Z,100668.00
2022-08-17T07:57:29.402Z,100677.00
2022-08-17T08:00:12.735Z,100672.00
2022-08-17T08:02:58.696Z,100664.00
2022-08-17T08:05:49.483Z,100666.00
2022-08-17T08:08:43.811Z,100665.00
2022-08-17T08:11:30.533Z,100659.00
2022-08-17T08:14:38.451Z,100665.00
2022-08-17T08:17:09.353Z,100671.00
2022-08-17T08:19:39.369Z,100679.00
2022-08-17T08:22:37.715Z,100684.00
2022-08-17T08:25:18.862Z,100675.00
2022-08-17T08:28:34.933Z,100683.00
2022-08-17T08:31:41.623Z,100679.00
2022-08-17T08:35:01.128Z,100682.00
2022-08-17T08:38:10.289Z,100692.00
2022-08-17T08:41:00.416Z,100689.00
2022-08-17T08:43:57.310Z,100693.00
2022-08-17T08:47:12.129Z,100684.00
2022-08-17T08:50:48.997Z,100684.00
2022-08-17T08:53:49.550Z,100683.00
2022-08-17T08:57:04.966Z,100685.00
2022-08-17T08:59:42.032Z,100689.00
2022-08-17T09:02:44.944Z,100699.00
2022-08-17T09:05:33.185Z,100699.00
2022-08-17T09:08:27.540Z,100707.00
2022-08-17T09:11:06.730Z,100704.00
2022-08-17T09:14:01.060Z,100714.00
2022-08-17T09:16:41.676Z,100720.00
2022-08-17T09:19:19.028Z,100727.00
2022-08-17T09:22:32.436Z,100741.00
2022-08-17T09:25:16.082Z,100750.00
2022-08-17T09:28:06.668Z,100756.00
2022-08-17T09:30:47.614Z,100757.00
2022-08-17T09:33:23.177Z,100757.00
2022-08-17T09:36:02.509Z,100760.00
2022-08-17T09:38:43.582Z,100757.00
2022-08-17T09:41:55.716Z,100760.00
2022-08-17T09:44:55.599Z,100750.00
2022-08-17T09:47:45.565Z,100753.00
2022-08-17T09:51:05.423Z,100757.00
2022-08-17T09:53:26.017Z,100765.00
2022-08-17T09:56:06.687Z,100763.00
2022-08-17T09:59:20.307Z,100761.00
2022-08-17T10:02:17.640Z,100766.00
2022-08-17T10:05:27.516Z,100758.00
2022-08-17T10:08:42.262Z,100756.00
2022-08-17T10:11:59.930Z,100758.00
2022-08-17T10:14:53.206Z,100754.00
2022-08-17T10:17:38.377Z,100767.00
2022-08-17T10:20:25.108Z,100770.00
2022-08-17T10:23:32.427Z,100766.00
2022-08-17T10:26:18.958Z,100762.00
2022-08-17T10:29:01.482Z,100765.00
2022-08-17T10:31:39.984Z,100765.00
2022-08-17T10:34:47.740Z,100760.00
2022-08-17T10:37:49.415Z,100772.00
2022-08-17T10:40:35.863Z,100752.00
2022-08-17T10:43:02.876Z,100763.00
2022-08-17T10:46:10.329Z,100768.00
2022-08-17T10:49:18.392Z,100766.00
2022-08-17T10:51:48.574Z,100762.00
2022-08-17T10:54:25.049Z,100776.00
2022-08-17T10:56:56.105Z,100786.00
2022-08-17T10:59:52.218Z,100791.00
2022-08-17T11:02:50.216Z,100792.00
2022-08-17T11:05:29.267Z,100798.00
2022-08-17T11:08:57.925Z,100799.00
2022-08-17T11:12:15.634Z,100803.00
2022-08-17T11:15:28.707Z,100801.00
2022-08-17T11:19:20.929Z,100815.00
2022-08-17T11:22:21.852Z,100807.00
2022-08-17T11:24:53.187Z,100802.00
2022-08-17T11:27:31.129Z,100793.00
2022-08-17T11:30:05.310Z,100792.00
2022-08-17T11:32:48.877Z,100798.00
2022-08-17T11:35:22.008Z,100797.00
2022-08-17T11:38:28.506Z,100791.00
2022-08-17T11:41:30.562Z,100787.00
2022-08-17T11:44:39.342Z,100773.00
2022-08-17T11:48:02.516Z,100767.00
2022-08-17T11:51:36.494Z,100768.00
2022-08-17T11:57:26.607Z,100770.00
2022-08-17T12:00:00.772Z,100776.00
2022-08-17T12:06:44.485Z,100780.00
2022-08-17T12:09:25.131Z,100767.00
2022-08-17T12:12:13.842Z,100776.00
2022-08-17T12:15:10.685Z,100777.00
2022-08-17T12:17:40.891Z,100780.00
2022-08-17T12:20:24.242Z,100786.00
2022-08-17T12:23:24.455Z,100781.00
2022-08-17T12:26:32.209Z,100784.00
2022-08-17T12:29:18.484Z,100797.00
2022-08-17T12:32:03.924Z,100795.00
2022-08-17T12:34:42.737Z,100793.00
2022-08-17T12:37:29.831Z,100786.00
2022-08-17T12:40:00.096Z,100789.00
2022-08-17T12:42:38.948Z,100799.00
2022-08-17T12:45:25.736Z,100799.00
2022-08-17T12:48:58.788Z,100805.00
2022-08-17T12:51:26.716Z,100810.00
2022-08-17T12:53:55.801Z,100805.00
2022-08-17T12:56:23.064Z,100813.00
2022-08-17T12:58:55.680Z,100807.00
2022-08-17T13:01:25.312Z,100799.00
2022-08-17T13:03:59.890Z,100815.00
2022-08-17T13:06:35.387Z,100815.00
2022-08-17T13:09:13.938Z,100821.00
2022-08-17T13:11:55.269Z,100818.00
2022-08-17T13:14:23.067Z,100818.00
2022-08-17T13:17:06.299Z,100818.00
2022-08-17T13:19:48.460Z,100815.00
2022-08-17T13:22:15.691Z,100808.00
2022-08-17T13:24:56.876Z,100803.00
2022-08-17T13:27:29.625Z,100800.00
2022-08-17T13:30:08.305Z,100810.00
2022-08-17T13:32:43.884Z,100818.00
2022-08-17T13:35:49.894Z,100809.00
2022-08-17T13:38:47.297Z,100804.00
2022-08-17T13:41:34.391Z,100798.00
2022-08-17T13:44:02.479Z,100799.00
2022-08-17T13:46:33.273Z,100794.00
2022-08-17T13:49:11.875Z,100794.00
2022-08-17T13:51:49.127Z,100800.00
2022-08-17T13:54:26.161Z,100801.00
2022-08-17T13:57:07.726Z,100800.00
2022-08-17T13:59:52.977Z,100798.00
2022-08-17T14:02:21.671Z,100800.00
2022-08-17T14:04:49.395Z,100795.00
2022-08-17T14:07:18.358Z,100810.00
2022-08-17T14:10:01.906Z,100800.00
2022-08-17T14:12:33.254Z,100802.00
2022-08-17T14:15:01.677Z,100798.00
2022-08-17T14:17:35.015Z,100796.00
2022-08-17T14:20:12.949Z,100800.00
2022-08-17T14:22:49.516Z,100791.00
2022-08-17T14:25:31.072Z,100777.00
2022-08-17T14:27:58.581Z,100777.00
2022-08-17T14:30:28.898Z,100779.00
2022-08-17T14:32:58.421Z,100774.00
2022-08-17T14:35:28.014Z,100761.00
2022-08-17T14:37:56.092Z,100780.00
2022-08-17T14:40:25.369Z,100773.00
2022-08-17T14:42:58.199Z,100779.00
2022-08-17T14:45:30.315Z,100772.00
2022-08-17T14:48:08.556Z,100769.00
2022-08-17T14:50:40.777Z,100766.00
2022-08-17T14:53:12.412Z,100756.00
2022-08-17T14:55:40.797Z,100754.00
2022-08-17T14:58:09.335Z,100742.00
2022-08-17T15:00:37.688Z,100758.00
2022-08-17T15:03:42.899Z,100764.00
2022-08-17T15:06:16.338Z,100757.00
2022-08-17T15:08:44.253Z,100762.00
2022-08-17T15:11:14.578Z,100757.00
2022-08-17T15:13:52.673Z,100756.00
2022-08-17T15:16:20.752Z,100751.00
2022-08-17T15:18:48.494Z,100758.00
2022-08-17T15:21:15.962Z,100760.00
2022-08-17T15:23:43.615Z,100752.00
2022-08-17T15:26:12.057Z,100751.00
2022-08-17T15:28:39.260Z,100746.00
2022-08-17T15:31:06.832Z,100747.00
2022-08-17T15:33:34.230Z,100740.00
2022-08-17T15:36:06.647Z,100742.00
2022-08-17T15:38:39.797Z,100732.00
2022-08-17T15:41:15.411Z,100741.00
2022-08-17T15:43:44.714Z,100738.00
2022-08-17T15:46:19.264Z,100734.00
2022-08-17T15:48:55.056Z,100732.00
2022-08-17T15:51:25.642Z,100733.00
2022-08-17T15:53:59.005Z,100733.00
2022-08-17T15:56:28.903Z,100738.00
2022-08-17T15:58:56.174Z,100732.00
2022-08-17T16:03:14.371Z,100729.00
2022-08-17T16:04:26.636Z,100731.00
2022-08-17T16:06:59.393Z,100736.00
2022-08-17T16:09:26.845Z,100728.00
2022-08-17T16:11:56.138Z,100733.00
2022-08-17T16:14:34.115Z,100742.00
2022-08-17T16:17:04.694Z,100754.00
2022-08-17T16:19:34.404Z,100748.00
2022-08-17T16:22:02.450Z,100752.00
2022-08-17T16:24:30.826Z,100742.00
2022-08-17T16:26:58.305Z,100742.00
2022-08-17T16:29:25.742Z,100747.00
2022-08-17T16:31:53.507Z,100752.00
2022-08-17T16:34:21.198Z,100745.00
2022-08-17T16:36:55.728Z,100749.00
2022-08-17T16:39:34.496Z,100752.00
2022-08-17T16:42:03.085Z,100750.00
2022-08-17T16:44:32.211Z,100750.00
2022-08-17T16:47:01.429Z,100747.00
2022-08-17T16:49:36.713Z,100749.00
2022-08-17T16:52:12.740Z,100761.00
2022-08-17T16:54:43.916Z,100765.00
2022-08-17T16:57:16.889Z,100763.00
2022-08-17T16:59:51.986Z,100770.00
2022-08-17T17:02:25.361Z,100772.00
2022-08-17T17:04:58.116Z,100772.00
2022-08-17T17:08:12.686Z,100783.00
2022-08-17T17:10:49.538Z,100781.00
2022-08-17T17:13:56.673Z,100785.00
2022-08-17T17:16:48.905Z,100784.00
2022-08-17T17:19:34.688Z,100781.00
2022-08-17T17:22:29.659Z,100785.00
2022-08-17T17:25:09.333Z,100780.00
2022-08-17T17:27:57.489Z,100779.00
2022-08-17T17:30:47.869Z,100787.00
2022-08-17T17:33:52.756Z,100791.00
2022-08-17T17:36:27.580Z,100790.00
2022-08-17T17:39:20.868Z,100780.00
2022-08-17T17:41:54.944Z,100782.00
2022-08-17T17:44:35.411Z,100785.00
2022-08-17T17:47:05.478Z,100794.00
2022-08-17T17:49:41.723Z,100795.00
2022-08-17T17:52:32.381Z,100803.00
2022-08-17T17:55:25.511Z,100796.00
2022-08-17T17:58:44.224Z,100806.00
2022-08-17T18:01:39.834Z,100812.00
2022-08-17T18:04:55.719Z,100814.00
2022-08-17T18:07:42.726Z,100818.00
2022-08-17T18:10:49.084Z,100820.00
2022-08-17T18:13:45.122Z,100819.00
2022-08-17T18:16:15.021Z,100828.00
2022-08-17T18:18:52.436Z,100838.00
2022-08-17T18:21:38.106Z,100831.00
2022-08-17T18:24:10.660Z,100836.00
2022-08-17T18:27:01.812Z,100839.00
2022-08-17T18:29:45.482Z,100855.00
2022-08-17T18:32:34.540Z,100856.00
2022-08-17T18:35:10.607Z,100866.00
2022-08-17T18:37:45.644Z,100855.00
2022-08-17T18:40:34.905Z,100856.00
2022-08-17T18:43:27.247Z,100860.00
2022-08-17T18:45:57.677Z,100859.00
2022-08-17T18:48:49.157Z,100858.00
2022-08-17T18:51:41.704Z,100847.00
2022-08-17T18:54:27.879Z,100856.00
2022-08-17T18:56:59.522Z,100851.00
2022-08-17T18:59:49.877Z,100859.00
2022-08-17T19:02:45.575Z,100867.00
2022-08-17T19:05:40.087Z,100862.00
2022-08-17T19:08:35.477Z,100864.00
2022-08-17T19:11:10.713Z,100865.00
2022-08-17T19:13:52.568Z,100860.00
2022-08-17T19:16:50.338Z,100864.00
2022-08-17T19:19:30.992Z,100867.00
2022-08-17T19:22:29.049Z,100872.00
2022-08-17T19:25:16.140Z,100881.00
2022-08-17T19:28:22.287Z,100881.00
2022-08-17T19:30:57.968Z,100876.00
2022-08-17T19:33:26.362Z,100877.00
2022-08-17T19:36:26.695Z,100885.00
2022-08-17T19:39:11.642Z,100881.00
2022-08-17T19:42:03.566Z,100879.00
2022-08-17T19:44:47.195Z,100870.00
2022-08-17T19:47:54.848Z,100866.00
2022-08-17T19:50:42.911Z,100865.00
2022-08-17T19:54:03.783Z,100883.00
2022-08-17T19:56:58.245Z,100879.00
2022-08-17T20:00:01.916Z,100876.00
2022-08-17T20:02:58.582Z,100888.00
2022-08-17T20:06:01.467Z,100868.00
2022-08-17T20:08:38.736Z,100880.00
2022-08-17T20:11:21.303Z,100872.00
2022-08-17T20:14:01.003Z,100887.00
2022-08-17T20:16:28.720Z,100875.00
2022-08-17T20:19:08.177Z,100884.00
2022-08-17T20:21:46.203Z,100879.00
2022-08-17T20:24:52.599Z,100879.00
2022-08-17T20:27:31.780Z,100891.00
2022-08-17T20:30:10.472Z,100891.00
2022-08-17T20:32:53.920Z,100898.00
2022-08-17T20:35:34.164Z,100906.00
2022-08-17T20:38:06.793Z,100889.00
2022-08-17T20:40:40.300Z,100913.00
2022-08-17T20:43:35.563Z,100897.00
2022-08-17T20:46:29.855Z,100905.00
2022-08-17T20:49:14.942Z,100908.00
2022-08-17T20:52:16.741Z,100912.00
2022-08-17T20:54:55.094Z,100910.00
2022-08-17T20:57:37.368Z,100912.00
2022-08-17T21:00:30.243Z,100915.00
2022-08-17T21:03:22.787Z,100911.00
2022-08-17T21:06:17.336Z,100913.00
2022-08-17T21:09:12.920Z,100920.00
2022-08-17T21:12:03.306Z,100915.00
2022-08-17T21:14:58.251Z,100922.00
2022-08-17T21:17:36.683Z,100925.00
2022-08-17T21:20:25.452Z,100925.00
2022-08-17T21:23:20.665Z,100930.00
2022-08-17T21:26:11.996Z,100936.00
2022-08-17T21:29:32.531Z,100936.00
2022-08-17T21:32:03.963Z,100938.00
2022-08-17T21:34:44.093Z,100945.00
2022-08-17T21:37:23.635Z,100938.00
2022-08-17T21:40:21.528Z,100932.00
2022-08-17T21:43:00.337Z,100928.00
2022-08-17T21:45:36.613Z,100929.00
2022-08-17T21:48:24.744Z,100929.00
2022-08-17T21:51:14.608Z,100937.00
2022-08-17T21:53:56.298Z,100935.00
2022-08-17T21:56:50.283Z,100932.00
2022-08-17T21:59:30.831Z,100924.00
2022-08-17T22:02:26.694Z,100935.00
2022-08-17T22:05:06.791Z,100920.00
2022-08-17T22:07:52.884Z,100913.00
2022-08-17T22:10:42.969Z,100907.00
2022-08-17T22:13:16.710Z,100916.00
2022-08-17T22:16:27.676Z,100910.00
2022-08-17T22:18:58.251Z,100905.00
2022-08-17T22:21:26.401Z,100916.00
2022-08-17T22:24:06.057Z,100908.00
2022-08-17T22:27:01.076Z,100911.00
2022-08-17T22:29:53.345Z,100907.00
2022-08-17T22:32:54.442Z,100913.00
2022-08-17T22:35:33.554Z,100908.00
2022-08-17T22:38:19.002Z,100910.00
2022-08-17T22:40:51.101Z,100907.00
2022-08-17T22:43:26.233Z,100921.00
2022-08-17T22:45:59.209Z,100919.00
2022-08-17T22:48:29.835Z,100923.00
2022-08-17T22:51:20.270Z,100932.00
2022-08-17T22:54:15.858Z,100940.00
2022-08-17T22:57:20.191Z,100944.00
2022-08-17T22:59:55.658Z,100944.00
2022-08-17T23:02:35.237Z,100947.00
2022-08-17T23:05:13.211Z,100946.00
2022-08-17T23:07:47.041Z,100943.00
2022-08-17T23:10:15.542Z,100943.00
2022-08-17T23:12:46.424Z,100934.00
2022-08-17T23:15:19.423Z,100928.00
2022-08-17T23:17:46.849Z,100929.00
2022-08-17T23:20:16.697Z,100910.00
2022-08-17T23:22:52.881Z,100916.00
2022-08-17T23:25:32.395Z,100917.00
2022-08-17T23:28:04.147Z,100923.00
2022-08-17T23:30:50.651Z,100926.00
2022-08-17T23:38:02.253Z,100939.00
2022-08-17T23:40:32.207Z,100939.00
2022-08-17T23:42:59.687Z,100944.00
2022-08-17T23:45:28.709Z,100947.00
2022-08-17T23:47:56.360Z,100946.00
2022-08-17T23:50:29.907Z,100947.00
2022-08-17T23:52:59.422Z,100957.00
2022-08-17T23:55:26.513Z,100947.00
2022-08-17T23:57:53.841Z,100949.00
